New London, Missouri
Current Conditions -  °F | °C
As of 5:54 PM on Monday 24 Nov 2014 (Local Time) from KUIN Reporting Station
Overcast Overcast  
Wind Chill: 23°   Ceiling: 3000
Heat Index: 32°   Visibility: 10mi
Dew Point: 24°   Wind: 13mph
Humidity: 73%   Direction: 270°W
Pressure: 29.85"   Gusts: 25mph
Location:  39.59°N, 91.4°W
Report Text: KUIN 242354Z AUTO 27011G22KT 10SM OVC030 00/M04 A2985 RMK AO2 SLP113 T00001044 10006 20000 51040
Loading
Personal Weather Stations






























Interactive Weather Map New forecast layout! Learn more

10-Day Weather Forecast

Advertisements
Track Severe Weather on mobile